Time;durP1;ratioP1;P1;durP2;ratioP2;P2;SDS_P1;SDS_P2;PMS_P1;PMS_P2;Temp;Humidity;BMP_temperature;BMP_pressure;BME280_temperature;BME280_humidity;BME280_pressure;Samples;Min_cycle;Max_cycle;Signal;HPM_P1;HPM_P2
2022/01/09 00:01:09;;;;;;;7.53;5.22;;;;;;;4.63;100.00;98779.81;5034082;28;20465;-85
2022/01/09 00:03:34;;;;;;;7.75;5.30;;;;;;;4.67;100.00;98794.81;5031831;28;20041;-77
2022/01/09 00:05:59;;;;;;;8.20;5.47;;;;;;;4.68;100.00;98811.78;5033724;28;20116;-78
2022/01/09 00:08:25;;;;;;;8.02;6.05;;;;;;;4.50;100.00;98779.84;5033660;28;20079;-81
2022/01/09 00:10:51;;;;;;;8.55;5.95;;;;;;;4.75;100.00;98823.22;5015889;28;20018;-80
2022/01/09 00:13:17;;;;;;;8.93;6.68;;;;;;;4.78;100.00;98834.97;5015523;28;20141;-74
2022/01/09 00:15:43;;;;;;;8.02;6.32;;;;;;;4.64;100.00;98823.16;5033674;28;20052;-76
2022/01/09 00:18:08;;;;;;;9.90;7.07;;;;;;;4.49;100.00;98814.81;5033833;28;20030;-76
2022/01/09 00:20:34;;;;;;;8.73;6.57;;;;;;;4.68;100.00;98851.88;5033531;28;20017;-80
2022/01/09 00:23:00;;;;;;;10.00;7.60;;;;;;;4.70;100.00;98876.41;5033627;28;20492;-77
2022/01/09 00:25:27;;;;;;;9.98;7.70;;;;;;;4.75;100.00;98887.13;5033346;28;20049;-78
2022/01/09 00:27:53;;;;;;;9.40;6.30;;;;;;;4.75;100.00;98888.88;5033184;28;20621;-77
2022/01/09 00:30:22;;;;;;;11.05;4.28;;;;;;;4.72;100.00;98897.59;5032941;28;20105;-76
2022/01/09 00:32:48;;;;;;;9.23;4.03;;;;;;;4.32;100.00;98848.38;5033335;28;20021;-76
2022/01/09 00:35:14;;;;;;;12.20;4.57;;;;;;;4.56;100.00;98905.50;5033256;28;20159;-77
2022/01/09 00:37:39;;;;;;;11.95;4.13;;;;;;;4.53;100.00;98913.38;5033356;28;20030;-78
2022/01/09 00:40:06;;;;;;;14.85;3.70;;;;;;;4.44;100.00;98893.56;5033102;28;20026;-77
2022/01/09 00:42:32;;;;;;;15.73;3.67;;;;;;;4.36;100.00;98906.03;5033232;28;20033;-78
2022/01/09 00:44:58;;;;;;;17.58;5.55;;;;;;;4.57;100.00;98936.97;5032868;28;20036;-76
2022/01/09 00:47:23;;;;;;;29.50;4.93;;;;;;;4.54;100.00;98950.78;5033251;28;20037;-78
2022/01/09 00:49:48;;;;;;;26.05;5.53;;;;;;;4.50;100.00;98963.88;5033171;28;20487;-74
2022/01/09 00:52:14;;;;;;;34.85;5.90;;;;;;;4.41;100.00;98946.59;5033091;28;20104;-77
2022/01/09 00:54:39;;;;;;;33.08;6.03;;;;;;;4.48;100.00;98956.31;5033087;28;20033;-75
2022/01/09 00:57:05;;;;;;;40.17;5.95;;;;;;;4.47;100.00;98964.91;5032813;28;20025;-75
2022/01/09 00:59:30;;;;;;;39.38;5.97;;;;;;;4.34;100.00;98963.28;5032097;28;20036;-76
2022/01/09 01:01:55;;;;;;;36.17;6.53;;;;;;;4.36;100.00;98971.66;5032715;28;20108;-80
2022/01/09 01:04:21;;;;;;;43.13;7.18;;;;;;;4.43;100.00;98995.91;5032924;28;20025;-76
2022/01/09 01:06:46;;;;;;;30.50;5.93;;;;;;;4.40;100.00;99008.84;5032850;28;20052;-75
2022/01/09 01:09:11;;;;;;;30.50;4.53;;;;;;;4.35;100.00;99001.50;5033079;28;20469;-75
2022/01/09 01:11:37;;;;;;;28.58;5.20;;;;;;;4.29;100.00;99015.50;5032571;28;20053;-75
2022/01/09 01:14:03;;;;;;;28.67;4.30;;;;;;;4.20;100.00;99023.75;5032942;28;20547;-76
2022/01/09 01:16:28;;;;;;;26.70;4.10;;;;;;;4.16;100.00;99024.88;5032582;28;20049;-77
2022/01/09 01:18:55;;;;;;;18.63;3.17;;;;;;;4.07;100.00;99014.47;5032880;28;20354;-77
2022/01/09 01:21:23;;;;;;;20.77;3.95;;;;;;;3.86;100.00;98997.06;5032694;28;20053;-75
2022/01/09 01:23:49;;;;;;;31.02;5.95;;;;;;;3.96;100.00;99017.72;5032684;28;20232;-75
2022/01/09 01:26:14;;;;;;;30.23;6.07;;;;;;;4.16;100.00;99037.66;5032272;28;20104;-75
2022/01/09 01:28:39;;;;;;;37.92;6.28;;;;;;;4.20;100.00;99041.66;5014864;28;20037;-79
2022/01/09 01:31:05;;;;;;;38.45;6.22;;;;;;;3.98;100.00;99008.22;5032330;28;20103;-74
2022/01/09 01:33:30;;;;;;;46.55;7.43;;;;;;;4.28;100.00;99062.41;5032459;28;20416;-80
2022/01/09 01:35:55;;;;;;;41.97;6.68;;;;;;;4.33;100.00;99069.78;5032612;28;20067;-77
2022/01/09 01:38:21;;;;;;;46.92;6.82;;;;;;;4.29;100.00;99058.94;5032463;28;20116;-79
2022/01/09 01:40:46;;;;;;;46.22;8.32;;;;;;;4.37;100.00;99071.22;5032064;28;20542;-84
2022/01/09 01:43:12;;;;;;;39.88;6.47;;;;;;;4.39;100.00;99081.34;5032418;28;20547;-76
2022/01/09 01:45:37;;;;;;;36.85;6.15;;;;;;;4.18;100.00;99046.03;5014591;28;20045;-77
2022/01/09 01:48:06;;;;;;;31.65;6.55;;;;;;;4.15;100.00;99051.34;5032435;28;20403;-76
2022/01/09 01:50:38;;;;;;;43.63;8.05;;;;;;;4.35;100.00;99090.13;5014184;28;20446;-76
2022/01/09 01:53:10;;;;;;;46.35;7.93;;;;;;;4.24;100.00;99073.75;5032174;28;20025;-76
2022/01/09 01:55:37;;;;;;;39.55;6.30;;;;;;;4.37;100.00;99111.28;5032257;28;20026;-76
2022/01/09 01:58:08;;;;;;;38.47;6.57;;;;;;;4.38;100.00;99111.19;5032106;28;20032;-76
2022/01/09 02:00:34;;;;;;;34.13;5.53;;;;;;;4.40;100.00;99128.97;5032135;28;20481;-86
2022/01/09 02:03:00;;;;;;;39.30;7.13;;;;;;;4.40;100.00;99127.22;5032520;28;20028;-75
2022/01/09 02:05:25;;;;;;;41.60;7.88;;;;;;;4.24;100.00;99113.81;5032570;28;20025;-83
2022/01/09 02:07:51;;;;;;;37.88;7.07;;;;;;;4.40;100.00;99136.63;5031894;28;20541;-76
2022/01/09 02:10:17;;;;;;;38.58;6.10;;;;;;;4.22;100.00;99113.91;5032271;28;20025;-77
2022/01/09 02:12:43;;;;;;;38.25;6.28;;;;;;;4.41;100.00;99153.59;5034915;28;20025;-77
2022/01/09 02:15:38;;;;;;;36.72;7.30;;;;;;;4.41;100.00;99164.63;5035946;28;20074;-80
2022/01/09 02:18:07;;;;;;;39.42;6.18;;;;;;;4.32;100.00;99158.38;5036165;28;20056;-78
2022/01/09 02:20:33;;;;;;;46.47;7.88;;;;;;;4.35;100.00;99164.22;5036020;28;20072;-77
2022/01/09 02:22:58;;;;;;;44.83;8.70;;;;;;;4.34;100.00;99165.97;5035900;28;20427;-80
2022/01/09 02:25:24;;;;;;;46.08;8.07;;;;;;;4.33;100.00;99172.00;5036007;28;20030;-78
2022/01/09 02:27:49;;;;;;;47.47;7.93;;;;;;;4.40;100.00;99193.66;5035272;28;20036;-77
2022/01/09 02:30:15;;;;;;;37.47;7.63;;;;;;;4.21;100.00;99176.13;5035623;28;20044;-77
2022/01/09 02:32:40;;;;;;;36.47;7.43;;;;;;;4.22;100.00;99175.22;5036013;28;20037;-77
2022/01/09 02:35:06;;;;;;;32.63;7.90;;;;;;;4.28;100.00;99181.69;5035718;28;20064;-78
2022/01/09 02:37:32;;;;;;;44.15;7.63;;;;;;;4.39;100.00;99206.56;5035622;28;20418;-90
2022/01/09 02:39:57;;;;;;;36.67;6.97;;;;;;;4.38;100.00;99213.41;5035533;28;20109;-88
2022/01/09 02:42:26;;;;;;;37.90;7.25;;;;;;;4.18;100.00;99191.66;5017942;28;20061;-88
2022/01/09 02:44:52;;;;;;;31.92;6.55;;;;;;;4.35;100.00;99221.28;5035538;28;20147;-80
2022/01/09 02:47:19;;;;;;;34.85;7.05;;;;;;;4.36;100.00;99228.03;5035488;28;20492;-87
2022/01/09 02:49:49;;;;;;;38.13;6.28;;;;;;;4.19;100.00;99210.34;5033353;28;20486;-77
2022/01/09 02:52:32;;;;;;;46.78;7.57;;;;;;;4.32;100.00;99240.16;5035341;28;20032;-78
2022/01/09 02:55:12;;;;;;;34.83;6.35;;;;;;;4.00;100.00;99200.47;5020057;28;20056;-88
2022/01/09 02:57:42;;;;;;;41.97;6.72;;;;;;;4.17;100.00;99230.91;5035200;28;20534;-78
2022/01/09 03:00:18;;;;;;;34.58;6.00;;;;;;;4.21;100.00;99247.66;5017735;28;20370;-91
2022/01/09 03:02:44;;;;;;;34.97;6.55;;;;;;;4.15;100.00;99231.91;5035422;28;20392;-77
2022/01/09 03:05:10;;;;;;;30.77;5.60;;;;;;;4.30;100.00;99271.84;5035281;28;20030;-78
2022/01/09 03:07:36;;;;;;;37.10;6.10;;;;;;;3.96;100.00;99222.00;5035101;28;20040;-79
2022/01/09 03:10:03;;;;;;;32.72;5.68;;;;;;;4.25;100.00;99286.63;5035054;28;20021;-79
2022/01/09 03:12:28;;;;;;;29.98;5.55;;;;;;;4.08;100.00;99267.22;5034960;28;20216;-80
2022/01/09 03:14:54;;;;;;;31.58;5.88;;;;;;;4.17;100.00;99297.31;5034200;28;20467;-88
2022/01/09 03:17:19;;;;;;;30.30;6.03;;;;;;;4.15;100.00;99301.72;5017389;28;20519;-88
2022/01/09 03:19:44;;;;;;;26.58;4.72;;;;;;;4.16;100.00;99307.63;5034902;28;20720;-77
2022/01/09 03:22:10;;;;;;;34.47;7.90;;;;;;;4.16;100.00;99318.69;5035042;28;20075;-83
2022/01/09 03:24:35;;;;;;;28.13;6.13;;;;;;;4.17;100.00;99324.59;5033725;28;20037;-78
2022/01/09 03:27:01;;;;;;;33.13;5.47;;;;;;;3.97;100.00;99297.72;5034713;28;20172;-81
2022/01/09 03:29:28;;;;;;;29.88;6.43;;;;;;;3.95;100.00;99290.16;5034472;28;20029;-86
2022/01/09 03:31:53;;;;;;;30.23;5.13;;;;;;;4.17;100.00;99343.31;5034248;28;20370;-89
2022/01/09 03:34:19;;;;;;;28.63;4.78;;;;;;;4.14;100.00;99335.84;5034844;28;20040;-79
2022/01/09 03:36:44;;;;;;;22.30;4.60;;;;;;;3.95;100.00;99314.88;5034705;28;20508;-83
2022/01/09 03:39:10;;;;;;;31.10;5.38;;;;;;;3.85;100.00;99319.69;5034541;28;20472;-78
2022/01/09 03:41:35;;;;;;;22.30;4.88;;;;;;;4.10;100.00;99354.81;5034483;28;20083;-78
2022/01/09 03:44:01;;;;;;;21.77;4.35;;;;;;;4.07;100.00;99361.84;5016734;28;20025;-78
2022/01/09 03:46:26;;;;;;;27.77;6.15;;;;;;;4.00;100.00;99364.75;5034185;28;20108;-87
2022/01/09 03:48:51;;;;;;;23.35;4.72;;;;;;;4.01;100.00;99370.66;5034250;28;20021;-89
2022/01/09 03:51:17;;;;;;;22.83;4.70;;;;;;;3.69;100.00;99336.81;5034410;28;20029;-89
2022/01/09 03:53:42;;;;;;;31.73;5.93;;;;;;;3.80;100.00;99362.53;5034422;28;20021;-81
2022/01/09 03:56:08;;;;;;;20.83;4.40;;;;;;;3.71;100.00;99348.56;5034072;28;20095;-86
2022/01/09 03:58:35;;;;;;;26.75;4.40;;;;;;;3.82;100.00;99370.09;5034046;28;20034;-78
2022/01/09 04:01:01;;;;;;;21.48;3.83;;;;;;;3.68;100.00;99356.44;5034210;28;20048;-80
2022/01/09 04:03:27;;;;;;;22.15;4.85;;;;;;;3.97;100.00;99412.63;5032789;28;20029;-89
2022/01/09 04:05:52;;;;;;;24.25;4.05;;;;;;;3.79;100.00;99393.28;5034149;28;20108;-86
2022/01/09 04:08:18;;;;;;;22.23;5.07;;;;;;;3.01;100.00;99273.53;5033822;28;20033;-78
2022/01/09 04:10:44;;;;;;;21.65;3.88;;;;;;;3.74;100.00;99391.81;5033808;28;20101;-81
2022/01/09 04:13:13;;;;;;;19.20;4.32;;;;;;;3.73;99.61;99400.38;5016390;28;20075;-80
2022/01/09 04:15:45;;;;;;;20.33;4.57;;;;;;;3.56;99.08;99380.13;5033545;28;20057;-77
2022/01/09 04:18:11;;;;;;;15.13;3.30;;;;;;;3.29;99.36;99356.16;5033996;28;20037;-87
2022/01/09 04:20:36;;;;;;;19.35;3.30;;;;;;;3.65;99.28;99417.88;5033747;28;20044;-87
2022/01/09 04:23:01;;;;;;;21.08;4.00;;;;;;;3.80;99.60;99454.47;5033635;28;20021;-77
2022/01/09 04:25:27;;;;;;;19.75;3.53;;;;;;;3.73;99.38;99451.44;5033505;28;20075;-85
2022/01/09 04:27:53;;;;;;;15.63;4.13;;;;;;;3.81;99.41;99475.72;5033307;28;20037;-89
2022/01/09 04:30:19;;;;;;;19.45;4.00;;;;;;;3.79;99.46;99482.63;5033246;28;20053;-85
2022/01/09 04:32:45;;;;;;;22.63;4.22;;;;;;;3.76;98.36;99477.72;5033689;28;20033;-82
2022/01/09 04:35:10;;;;;;;17.15;4.18;;;;;;;3.72;98.96;99488.06;5033220;28;20052;-88
2022/01/09 04:37:37;;;;;;;20.25;3.67;;;;;;;3.65;98.54;99489.34;5033508;28;20115;-80
2022/01/09 04:40:03;;;;;;;26.58;3.85;;;;;;;3.42;99.42;99459.16;5033287;28;20025;-83
2022/01/09 04:45:25;;;;;;;23.95;3.58;;;;;;;3.58;99.04;99505.91;4952903;29;20039;-78
2022/01/09 04:47:52;;;;;;;17.33;3.20;;;;;;;3.55;98.54;99508.63;4952984;28;20039;-85
2022/01/09 04:50:25;;;;;;;17.23;3.13;;;;;;;3.53;99.14;99524.91;4953037;29;20510;-86
2022/01/09 04:52:58;;;;;;;18.90;2.90;;;;;;;2.55;98.69;99374.66;4952961;29;20054;-81
2022/01/09 04:55:24;;;;;;;21.35;3.40;;;;;;;3.47;99.09;99536.31;4952915;29;20523;-90
2022/01/09 04:57:49;;;;;;;17.08;3.28;;;;;;;3.44;98.63;99531.34;4952823;28;20067;-84
2022/01/09 05:00:15;;;;;;;13.82;3.53;;;;;;;3.33;98.74;99526.81;4953015;28;20027;-87
2022/01/09 05:02:41;;;;;;;16.10;3.45;;;;;;;3.40;98.90;99547.75;4952886;29;20491;-79
2022/01/09 05:05:09;;;;;;;15.93;3.50;;;;;;;3.37;99.05;99551.28;4953031;28;20031;-80
2022/01/09 05:07:35;;;;;;;18.17;3.05;;;;;;;3.36;98.67;99564.13;4952545;28;20089;-89
2022/01/09 05:10:01;;;;;;;16.02;3.22;;;;;;;3.04;98.33;99523.28;4952594;28;20039;-88
2022/01/09 05:12:26;;;;;;;19.77;3.45;;;;;;;3.31;98.18;99573.75;4952804;28;20031;-84
2022/01/09 05:14:52;;;;;;;16.23;3.10;;;;;;;3.30;99.02;99577.22;4952594;28;20039;-88
2022/01/09 05:17:17;;;;;;;16.35;3.60;;;;;;;3.24;98.61;99577.50;4952551;28;20031;-82
2022/01/09 05:19:43;;;;;;;19.23;3.30;;;;;;;3.07;98.51;99556.28;4952681;28;20053;-87
2022/01/09 05:22:08;;;;;;;16.70;3.63;;;;;;;3.31;99.28;99606.91;5004642;28;20485;-82
2022/01/09 05:24:35;;;;;;;18.42;3.63;;;;;;;3.19;98.43;99577.78;5032912;28;20071;-88
2022/01/09 05:27:01;;;;;;;17.38;3.60;;;;;;;3.24;97.69;99593.66;5032555;28;20056;-86
2022/01/09 05:29:26;;;;;;;20.40;4.50;;;;;;;3.14;97.45;99580.53;5014507;28;20033;-86
2022/01/09 05:31:52;;;;;;;19.05;3.60;;;;;;;3.26;97.63;99599.50;5032272;28;20053;-85
2022/01/09 05:34:17;;;;;;;15.30;3.22;;;;;;;3.30;97.40;99613.75;5032758;28;20025;-80
2022/01/09 05:36:42;;;;;;;17.85;3.58;;;;;;;2.93;97.25;99560.44;5032408;28;20025;-80
2022/01/09 05:39:08;;;;;;;17.45;3.50;;;;;;;3.33;97.68;99640.81;5032339;28;20181;-88
2022/01/09 05:41:34;;;;;;;18.63;3.22;;;;;;;3.31;97.12;99634.97;5032806;28;20069;-78
2022/01/09 05:43:59;;;;;;;17.95;3.75;;;;;;;3.32;96.47;99640.00;5032379;28;20026;-78
2022/01/09 05:46:25;;;;;;;16.50;3.47;;;;;;;3.20;97.11;99620.22;5032929;28;20037;-89
2022/01/09 05:48:50;;;;;;;19.00;3.03;;;;;;;3.21;96.94;99626.97;5036647;28;20030;-78
2022/01/09 05:51:16;;;;;;;17.52;3.83;;;;;;;2.98;96.78;99576.34;5019008;28;20044;-80
2022/01/09 05:53:41;;;;;;;18.10;3.40;;;;;;;3.43;96.83;99652.19;5036143;28;20030;-82
2022/01/09 05:56:07;;;;;;;17.45;2.97;;;;;;;3.44;96.50;99666.59;5036729;28;20049;-78
2022/01/09 05:58:34;;;;;;;18.95;3.92;;;;;;;3.30;97.05;99641.81;5036421;28;20029;-88
2022/01/09 06:01:00;;;;;;;23.50;3.72;;;;;;;3.30;97.13;99648.66;5036806;28;20025;-84
2022/01/09 06:03:25;;;;;;;14.85;3.70;;;;;;;3.06;96.99;99617.59;5036310;28;20021;-87
2022/01/09 06:05:51;;;;;;;16.52;3.88;;;;;;;3.25;97.41;99660.81;5036566;28;20032;-87
2022/01/09 06:08:16;;;;;;;18.17;4.15;;;;;;;3.32;97.10;99682.56;5036176;28;20071;-86
2022/01/09 06:10:42;;;;;;;16.17;3.40;;;;;;;2.91;96.45;99610.69;5018682;28;20053;-87
2022/01/09 06:13:07;;;;;;;15.30;3.25;;;;;;;3.39;97.46;99699.19;5036240;28;20069;-88
2022/01/09 06:15:35;;;;;;;17.98;3.60;;;;;;;3.45;97.56;99681.84;5036273;28;20037;-86
2022/01/09 06:18:00;;;;;;;19.23;4.47;;;;;;;2.81;97.29;99575.47;5036287;28;20021;-86
2022/01/09 06:32:00;;;;;;;17.90;4.10;;;;;;;3.04;98.15;99652.53;4956973;29;20541;-79
2022/01/09 06:37:48;;;;;;;19.98;4.05;;;;;;;3.45;97.25;99712.47;4957778;29;20140;-78
2022/01/09 06:40:13;;;;;;;16.90;3.53;;;;;;;3.44;97.24;99713.38;4958436;29;20036;-79
2022/01/09 06:42:39;;;;;;;17.02;4.28;;;;;;;3.47;95.61;99707.28;4957693;29;20489;-80
2022/01/09 06:45:05;;;;;;;18.13;4.32;;;;;;;3.70;96.39;99755.41;4940339;29;20032;-81
2022/01/09 06:47:30;;;;;;;14.75;3.05;;;;;;;3.52;96.93;99712.97;4957120;29;20032;-81
2022/01/09 06:49:56;;;;;;;14.13;2.90;;;;;;;3.70;95.99;99747.75;4957268;29;20023;-91
2022/01/09 06:52:21;;;;;;;10.85;2.90;;;;;;;3.45;95.88;99725.25;4957544;29;20028;-80
2022/01/09 06:54:47;;;;;;;16.13;3.58;;;;;;;2.99;96.94;99669.78;4957228;29;20031;-90
2022/01/09 06:57:12;;;;;;;13.63;3.70;;;;;;;3.36;98.71;99738.47;4957354;28;20035;-88
2022/01/09 06:59:37;;;;;;;12.77;3.80;;;;;;;3.11;98.89;99703.16;4957271;29;20027;-89
2022/01/09 07:02:03;;;;;;;17.05;3.72;;;;;;;3.38;99.34;99746.88;4956933;29;20023;-90
2022/01/09 07:04:28;;;;;;;19.15;4.43;;;;;;;3.50;99.41;99770.09;4939838;29;20031;-90
2022/01/09 07:06:53;;;;;;;21.80;3.65;;;;;;;3.58;98.84;99775.66;4939936;29;20062;-92
2022/01/09 07:09:19;;;;;;;17.98;4.10;;;;;;;3.36;98.47;99741.03;4939741;29;20023;-86
2022/01/09 07:11:44;;;;;;;15.88;3.63;;;;;;;3.51;98.51;99762.38;4940117;29;20020;-88
2022/01/09 07:14:09;;;;;;;15.80;3.88;;;;;;;3.39;97.77;99755.34;4957500;29;20024;-90
2022/01/09 07:16:35;;;;;;;15.38;3.30;;;;;;;3.63;97.93;99792.38;4956913;29;20542;-91
2022/01/09 07:19:00;;;;;;;16.75;3.15;;;;;;;3.62;98.37;99798.38;4956693;29;20027;-90
2022/01/09 07:21:25;;;;;;;15.80;3.60;;;;;;;3.58;97.37;99788.41;4956646;29;20027;-91
2022/01/09 07:23:51;;;;;;;18.63;3.25;;;;;;;3.67;97.42;99803.28;4957048;29;20106;-91
2022/01/09 07:26:16;;;;;;;12.95;2.72;;;;;;;3.24;97.56;99735.69;4957488;29;20383;-92
2022/01/09 07:28:42;;;;;;;13.65;2.90;;;;;;;3.34;97.26;99757.28;4971185;28;20050;-91
2022/01/09 07:31:07;;;;;;;12.73;2.95;;;;;;;3.71;97.01;99809.84;4956344;29;20042;-87
2022/01/09 07:33:32;;;;;;;15.77;3.65;;;;;;;3.72;97.25;99812.31;4956651;29;20106;-87
2022/01/09 07:35:58;;;;;;;19.30;4.88;;;;;;;3.47;97.44;99768.53;4956518;29;20471;-89
2022/01/09 07:38:23;;;;;;;16.55;3.47;;;;;;;3.54;97.82;99789.47;4956518;29;20114;-87
2022/01/09 07:40:49;;;;;;;18.20;3.72;;;;;;;3.57;97.42;99797.81;4956524;29;20379;-90
2022/01/09 07:43:15;;;;;;;22.17;3.97;;;;;;;3.71;96.92;99818.34;4957639;29;20019;-90
2022/01/09 07:45:40;;;;;;;16.73;2.78;;;;;;;3.71;97.37;99822.63;4956505;29;20486;-89
2022/01/09 07:48:06;;;;;;;11.45;3.55;;;;;;;3.43;97.12;99784.91;4956394;29;20031;-92
2022/01/09 07:50:32;;;;;;;12.27;2.72;;;;;;;3.40;97.41;99790.16;4956361;29;20023;-90
2022/01/09 07:52:58;;;;;;;22.65;4.35;;;;;;;3.60;97.38;99833.38;4956601;29;20051;-90
2022/01/09 07:55:24;;;;;;;15.18;4.80;;;;;;;3.54;97.08;99820.94;4956274;29;20129;-90
2022/01/09 07:57:50;;;;;;;19.27;3.50;;;;;;;3.47;97.81;99811.94;4956451;29;20035;-85
2022/01/09 08:00:16;;;;;;;17.30;3.33;;;;;;;3.70;97.71;99846.50;4956345;29;20090;-90
2022/01/09 08:02:43;;;;;;;14.82;3.45;;;;;;;3.71;97.54;99854.09;4970123;28;20380;-87
2022/01/09 08:05:09;;;;;;;15.05;4.10;;;;;;;3.65;97.23;99869.72;4957046;29;20035;-91
2022/01/09 08:07:35;;;;;;;16.27;2.83;;;;;;;3.39;96.92;99824.25;4956228;29;20031;-91
2022/01/09 08:10:00;;;;;;;16.88;3.13;;;;;;;3.47;96.59;99855.31;4957944;28;20529;-90
2022/01/09 08:12:25;;;;;;;18.70;3.10;;;;;;;3.50;96.92;99869.66;4975675;28;20467;-91
2022/01/09 08:14:51;;;;;;;18.13;3.20;;;;;;;3.38;97.05;99871.91;4975975;28;20445;-90
2022/01/09 08:17:16;;;;;;;17.77;3.38;;;;;;;3.32;97.61;99881.56;4975234;28;20101;-92
2022/01/09 08:19:42;;;;;;;14.43;3.13;;;;;;;3.08;98.00;99855.53;4975041;28;20054;-90
2022/01/09 08:22:10;;;;;;;15.43;3.42;;;;;;;3.04;98.00;99862.47;4975309;28;20106;-89
2022/01/09 08:24:37;;;;;;;16.13;3.50;;;;;;;3.13;98.00;99873.97;4974933;28;20023;-87
2022/01/09 08:27:03;;;;;;;13.60;3.00;;;;;;;3.33;98.18;99895.97;4974655;28;20035;-89
2022/01/09 08:29:29;;;;;;;19.27;3.63;;;;;;;3.34;98.45;99898.47;4974664;28;20118;-91
2022/01/09 08:31:54;;;;;;;16.23;4.00;;;;;;;3.31;98.23;99892.69;4991859;28;20046;-89
2022/01/09 08:34:21;;;;;;;20.55;3.40;;;;;;;3.05;98.87;99833.53;4994217;28;20478;-81
2022/01/09 08:36:47;;;;;;;17.52;3.45;;;;;;;2.20;98.20;99690.59;4977136;28;20084;-81
2022/01/09 08:39:12;;;;;;;21.42;3.65;;;;;;;3.58;98.35;99911.78;4961678;28;20034;-87
2022/01/09 08:41:38;;;;;;;19.30;4.03;;;;;;;3.68;98.12;99909.59;4994656;28;20026;-88
2022/01/09 08:44:04;;;;;;;18.00;4.35;;;;;;;3.72;97.91;99917.00;4994971;28;20057;-92
2022/01/09 08:46:34;;;;;;;17.95;4.30;;;;;;;3.81;97.66;99931.06;4993894;28;20080;-88
2022/01/09 08:49:00;;;;;;;16.80;4.00;;;;;;;3.84;97.05;99927.56;4993645;28;20022;-86
2022/01/09 08:51:27;;;;;;;14.35;3.58;;;;;;;3.67;96.58;99900.28;4993911;28;20160;-87
2022/01/09 08:53:52;;;;;;;14.55;3.30;;;;;;;3.81;97.16;99936.16;4993907;28;20380;-86
2022/01/09 08:56:19;;;;;;;12.30;3.67;;;;;;;3.50;96.99;99901.09;4993647;28;20026;-87
2022/01/09 08:58:44;;;;;;;11.50;3.10;;;;;;;3.40;97.30;99913.47;4994481;28;20042;-87
2022/01/09 09:01:10;;;;;;;11.50;3.40;;;;;;;3.48;97.82;99946.31;4995392;28;20034;-88
2022/01/09 09:03:40;;;;;;;14.82;4.13;;;;;;;3.27;97.96;99911.59;4994561;28;20062;-91
2022/01/09 09:06:06;;;;;;;14.18;3.35;;;;;;;3.37;98.46;99902.59;4993770;28;20386;-90
2022/01/09 09:08:31;;;;;;;19.40;3.70;;;;;;;3.65;97.46;99925.06;4994143;28;20034;-92
2022/01/09 09:10:56;;;;;;;17.58;3.88;;;;;;;3.88;97.36;99952.03;4994530;28;20037;-90
2022/01/09 09:13:22;;;;;;;16.63;3.97;;;;;;;3.83;97.24;99948.84;4993771;28;20042;-90
2022/01/09 09:15:47;;;;;;;18.20;4.63;;;;;;;3.88;96.90;99952.84;4994281;28;20023;-90
2022/01/09 09:18:12;;;;;;;14.68;3.60;;;;;;;4.01;97.05;99964.09;4977028;28;20042;-90
2022/01/09 09:20:38;;;;;;;19.40;4.00;;;;;;;4.10;96.68;99967.94;4993793;28;20089;-90
2022/01/09 09:23:04;;;;;;;16.88;4.20;;;;;;;4.14;96.22;99981.41;4975918;28;20066;-91
2022/01/09 09:25:29;;;;;;;20.13;3.60;;;;;;;3.95;96.12;99955.94;4994451;28;20437;-91
2022/01/09 09:27:54;;;;;;;13.35;3.10;;;;;;;4.09;95.95;99981.59;4993870;28;20034;-86
2022/01/09 09:30:20;;;;;;;17.20;2.95;;;;;;;4.16;96.23;99990.63;4993572;28;20042;-86
2022/01/09 09:32:45;;;;;;;13.95;2.70;;;;;;;4.09;95.45;99983.34;4993827;28;20117;-90
2022/01/09 09:35:11;;;;;;;12.75;2.42;;;;;;;4.22;96.00;99999.69;4993682;28;20075;-88
2022/01/09 09:37:37;;;;;;;12.45;3.10;;;;;;;4.31;95.81;99992.41;4994166;28;20026;-81
2022/01/09 09:40:03;;;;;;;13.82;3.10;;;;;;;4.22;94.72;99961.38;4994199;28;20030;-91
2022/01/09 09:42:28;;;;;;;15.75;2.72;;;;;;;4.59;93.93;100011.44;4994296;28;20042;-91
2022/01/09 09:45:00;;;;;;;15.43;2.60;;;;;;;4.55;93.67;99999.75;4994245;28;20038;-91
2022/01/09 09:47:26;;;;;;;11.93;2.85;;;;;;;4.64;93.28;100013.78;4993988;28;20034;-85
2022/01/09 09:49:51;;;;;;;14.55;3.35;;;;;;;4.56;93.12;100003.94;4994247;28;20121;-83
2022/01/09 09:52:18;;;;;;;14.85;3.22;;;;;;;4.71;93.32;100015.09;4993881;28;20022;-88
2022/01/09 09:54:48;;;;;;;13.55;3.10;;;;;;;4.73;93.44;100024.38;4993897;28;20030;-83
2022/01/09 09:57:14;;;;;;;15.98;4.10;;;;;;;4.38;92.47;99963.97;4993764;28;20034;-90
2022/01/09 09:59:40;;;;;;;15.18;3.38;;;;;;;4.70;92.81;100027.06;4993807;28;20506;-85
2022/01/09 10:02:17;;;;;;;15.77;3.40;;;;;;;4.72;92.81;100025.28;4993256;28;20422;-85
2022/01/09 10:05:03;;;;;;;15.52;3.90;;;;;;;4.63;92.51;100025.75;4992916;28;20034;-86
2022/01/09 10:07:29;;;;;;;14.68;3.42;;;;;;;4.51;92.71;100028.91;4992889;28;20030;-85
2022/01/09 10:09:57;;;;;;;19.25;3.35;;;;;;;4.41;93.50;100022.59;4993002;28;20033;-87
2022/01/09 10:12:25;;;;;;;15.05;3.30;;;;;;;4.53;93.17;100038.19;4993272;28;20034;-84
2022/01/09 10:14:56;;;;;;;12.20;3.13;;;;;;;4.59;92.16;100045.53;4974912;28;20085;-88
2022/01/09 10:17:24;;;;;;;13.43;3.00;;;;;;;4.61;92.92;100041.16;4993176;28;20027;-81
2022/01/09 10:19:49;;;;;;;12.20;2.38;;;;;;;4.68;92.41;100045.97;4993583;28;20280;-89
2022/01/09 10:22:28;;;;;;;15.40;2.85;;;;;;;4.69;92.08;100040.75;4993299;28;20109;-91
2022/01/09 10:24:58;;;;;;;13.23;2.75;;;;;;;4.43;91.59;100002.94;4994131;28;20395;-89
2022/01/09 10:27:35;;;;;;;12.30;2.85;;;;;;;4.80;92.15;100053.81;4993453;28;20110;-85
2022/01/09 10:30:04;;;;;;;12.82;3.35;;;;;;;4.71;91.90;100040.69;4993533;28;20027;-90
2022/01/09 10:32:31;;;;;;;16.40;3.00;;;;;;;4.79;91.78;100048.78;4993990;28;20445;-89
2022/01/09 10:35:27;;;;;;;11.85;2.47;;;;;;;4.84;92.30;100062.19;4978686;28;20038;-84
2022/01/09 10:38:13;;;;;;;15.02;3.17;;;;;;;4.69;92.41;100055.28;4955526;29;20082;-89
2022/01/09 10:40:40;;;;;;;13.65;3.47;;;;;;;4.81;92.85;100068.25;4955872;29;20505;-88
2022/01/09 10:43:12;;;;;;;16.25;3.20;;;;;;;4.86;93.16;100071.44;4955619;29;20407;-89
2022/01/09 10:45:59;;;;;;;16.23;3.30;;;;;;;4.63;92.73;100027.50;4955464;29;20020;-91
2022/01/09 10:48:31;;;;;;;15.05;3.78;;;;;;;5.00;93.55;100072.44;4941396;29;20043;-79
2022/01/09 10:50:58;;;;;;;21.35;4.50;;;;;;;4.93;93.92;100041.25;4955261;29;20039;-82
2022/01/09 10:53:26;;;;;;;16.23;4.20;;;;;;;5.13;93.51;100051.25;4955393;29;20499;-81
2022/01/09 10:56:00;;;;;;;16.55;3.97;;;;;;;5.43;93.00;100082.06;4955307;29;20035;-79
2022/01/09 10:58:27;;;;;;;15.48;3.30;;;;;;;5.51;92.00;100074.00;4955325;29;20039;-77
2022/01/09 11:01:08;;;;;;;18.30;3.92;;;;;;;5.57;92.77;100076.19;4955224;29;20050;-83
2022/01/09 11:03:37;;;;;;;19.42;4.03;;;;;;;5.41;92.17;100050.63;4939326;29;20071;-81
2022/01/09 11:06:03;;;;;;;17.63;3.90;;;;;;;5.51;92.99;100050.94;4954922;29;20035;-82
2022/01/09 11:08:30;;;;;;;14.48;4.63;;;;;;;5.78;92.40;100079.31;4954960;29;20039;-81
2022/01/09 11:10:57;;;;;;;20.63;4.40;;;;;;;5.45;91.96;99998.31;4955006;29;20561;-78
2022/01/09 11:13:27;;;;;;;15.30;3.70;;;;;;;5.97;90.77;100074.03;4960555;28;20081;-79
2022/01/09 11:18:41;;;;;;;18.60;4.03;;;;;;;6.10;88.12;100067.34;4996203;28;20097;-81
2022/01/09 11:21:07;;;;;;;16.25;3.80;;;;;;;6.07;88.02;100067.47;4995797;28;20058;-90
2022/01/09 11:23:49;;;;;;;15.40;3.50;;;;;;;6.20;88.86;100088.16;4995851;28;20120;-91
2022/01/09 11:26:16;;;;;;;14.73;3.45;;;;;;;6.25;87.38;100089.50;5019184;23;20061;-87
2022/01/09 11:28:45;;;;;;;14.95;2.60;;;;;;;6.31;86.95;100093.47;5054989;28;20036;-88
2022/01/09 11:31:25;;;;;;;13.20;3.22;;;;;;;6.14;87.39;100062.84;5054720;28;20028;-91
2022/01/09 11:33:57;;;;;;;14.40;3.90;;;;;;;6.42;84.96;100101.38;5055594;28;20027;-91
2022/01/09 11:36:38;;;;;;;13.30;3.08;;;;;;;6.43;84.40;100090.22;5058034;28;20436;-82
2022/01/09 11:39:24;;;;;;;18.73;3.42;;;;;;;6.44;84.85;100107.25;5059368;28;20476;-92
2022/01/09 11:42:10;;;;;;;13.65;3.17;;;;;;;6.40;84.01;100104.97;5055711;28;20559;-92
2022/01/09 11:44:53;;;;;;;15.40;3.72;;;;;;;6.13;84.51;100056.06;5053633;28;20392;-93
2022/01/09 11:47:20;;;;;;;16.20;2.78;;;;;;;6.55;83.67;100111.75;5055049;28;20043;-91
2022/01/09 11:49:55;;;;;;;12.07;3.00;;;;;;;6.64;83.75;100120.66;5054430;28;20024;-93